Fuente el Saz, Spain
Current Conditions -  °F | °C
As of 2:00 PM on Monday 22 Dec 2014 (Local Time) from LETO Reporting Station
Clear Clear  
Wind Chill: 55°   Ceiling: Unl
Heat Index: 55°   Visibility: 6mi
Dew Point: 37°   Wind: 6mph
Humidity: 51%   Direction: 60°ENE
Pressure: 30.45"   Gusts: NA
Location:  40.63°N, 3.51°W
Report Text: LETO 221300Z 06005KT 020V150 CAVOK 13/03 Q1031 NOSIG
Loading
Personal Weather Stations






























Interactive Weather Map New forecast layout! Learn more

10-Day Weather Forecast

Advertisements
Track Severe Weather on mobile